»·PEaware :: DAL576 KHLN-KSEA

DAL576 :: KHLN-KSEA

FLIGHT INFORMATION

Flight Status: Arrived
Operator:
Delta Air Lines
More flights by this operator :: More flights under this callsign
Pilot: Anonymous 8274 (8274)
Aircraft: BOEING 737-200
(B732)
More flights by this aircraft type
Origin: KHLN Helena Regl
United States
Destination: KSEA Seattle-Tacoma Intl
United States
More flights between these airports :: More routes between these airports
Route: +SIEBE3 SIEBE MLP GLASR1
File this flight plan on PilotEdge
Remarks:
Altitude:
(Current/Filed)
32,000ft
Speed:
(Current/Filed)
440kts
Departed: 20-Aug-19 08:02 PM
Arrived: 20-Aug-19 09:20 PM
Distance/Time
Traveled:
425nm/1:18
Distance/Time
To Go:
Arrived

Flight Plot

Page will automatically refresh every two minutes.


Map Options




Map Legend


Flown Route
Filed Route
Departure Airport
Arrival Airport
Navaid (VOR, NDB)
Fix

Horizontal Profiles

Position Reports

Time Latitude Longitude Heading Altitude Ground
Speed
20-Aug-19 19:34 46.609786 -111.990478 48 3840ft 0kts
20-Aug-19 19:35 46.609786 -111.990478 48 3840ft 0kts
20-Aug-19 19:35 46.609786 -111.990478 48 3840ft 0kts
20-Aug-19 19:37 46.609786 -111.990478 48 3840ft 0kts
20-Aug-19 19:37 46.609786 -111.990478 48 3840ft 0kts
20-Aug-19 19:38 46.609786 -111.990478 48 3840ft 0kts
20-Aug-19 19:40 46.609786 -111.990478 48 3840ft 0kts
20-Aug-19 19:40 46.609786 -111.990478 48 3840ft 0kts
20-Aug-19 19:41 46.609786 -111.990478 48 3840ft 0kts
20-Aug-19 19:42 46.609786 -111.990478 48 3840ft 0kts
20-Aug-19 19:43 46.609786 -111.990478 48 3840ft 0kts
20-Aug-19 19:44 46.609786 -111.990478 48 3840ft 0kts
20-Aug-19 19:45 46.609698 -111.990998 117 3842ft 2kts
20-Aug-19 19:46 46.609780 -111.991148 133 3841ft 0kts
20-Aug-19 19:47 46.609780 -111.991148 133 3841ft 0kts
20-Aug-19 19:48 46.609780 -111.991148 133 3841ft 0kts
20-Aug-19 19:49 46.609780 -111.991148 133 3841ft 0kts
20-Aug-19 19:50 46.609780 -111.991148 133 3841ft 0kts
20-Aug-19 19:51 46.609324 -111.990562 141 3843ft 5kts
20-Aug-19 19:52 46.608476 -111.986738 104 3842ft 14kts
20-Aug-19 19:53 46.607831 -111.981924 103 3846ft 14kts
20-Aug-19 19:54 46.607083 -111.977023 106 3846ft 11kts
20-Aug-19 19:55 46.606020 -111.970480 101 3842ft 22kts
20-Aug-19 19:56 46.604228 -111.962515 189 3842ft 9kts
20-Aug-19 19:57 46.604056 -111.962565 191 3843ft 0kts
20-Aug-19 19:58 46.604056 -111.962565 191 3843ft 0kts
20-Aug-19 19:59 46.604056 -111.962565 191 3843ft 0kts
20-Aug-19 20:00 46.603106 -111.963100 250 3849ft 4kts
20-Aug-19 20:01 46.605942 -111.981630 282 3859ft 140kts
20-Aug-19 20:02 46.628484 -112.031025 352 5240ft 168kts
20-Aug-19 20:03 46.682356 -112.027640 3 6486ft 223kts
20-Aug-19 20:04 46.746016 -112.052890 330 8242ft 283kts
20-Aug-19 20:05 46.818782 -112.111078 333 10826ft 306kts
20-Aug-19 20:06 46.899140 -112.166015 327 12882ft 334kts
20-Aug-19 20:07 46.943619 -112.285365 288 13011ft 353kts
20-Aug-19 20:08 46.973434 -112.423878 281 12996ft 352kts
20-Aug-19 20:09 46.991835 -112.557429 280 15422ft 328kts
20-Aug-19 20:10 47.010532 -112.689316 280 17207ft 345kts
20-Aug-19 20:11 47.035301 -112.827390 283 19064ft 354kts
20-Aug-19 20:12 47.061252 -112.967103 283 20839ft 358kts
20-Aug-19 20:13 47.087523 -113.109557 283 22328ft 364kts
20-Aug-19 20:14 47.112429 -113.247942 283 23723ft 367kts
20-Aug-19 20:15 47.138181 -113.393158 284 25104ft 368kts
20-Aug-19 20:16 47.163362 -113.538620 284 26351ft 369kts
20-Aug-19 20:17 47.188421 -113.686674 283 27080ft 386kts
20-Aug-19 20:18 47.211453 -113.843678 279 27981ft 398kts
20-Aug-19 20:19 47.229854 -114.006167 279 28939ft 404kts
20-Aug-19 20:20 47.249168 -114.170222 282 29944ft 406kts
20-Aug-19 20:21 47.272961 -114.329545 283 31423ft 392kts
20-Aug-19 20:22 47.296315 -114.486454 283 32047ft 400kts
20-Aug-19 20:23 47.320741 -114.649467 283 32041ft 421kts
20-Aug-19 20:24 47.346725 -114.820553 283 32040ft 438kts
20-Aug-19 20:25 47.372124 -114.995620 281 32051ft 434kts
20-Aug-19 20:26 47.394836 -115.169244 281 32167ft 428kts
20-Aug-19 20:27 47.417627 -115.340865 281 32187ft 425kts
20-Aug-19 20:28 47.440256 -115.511012 279 32191ft 423kts
20-Aug-19 20:29 47.458942 -115.674158 277 32195ft 421kts
20-Aug-19 20:30 47.468304 -115.844632 275 32198ft 420kts
20-Aug-19 20:31 47.478356 -116.016601 274 32138ft 421kts
20-Aug-19 20:32 47.488251 -116.189225 274 32007ft 422kts
20-Aug-19 20:33 47.497485 -116.361968 274 32018ft 421kts
20-Aug-19 20:34 47.506365 -116.534113 274 32014ft 419kts
20-Aug-19 20:35 47.514814 -116.702524 273 32011ft 418kts
20-Aug-19 20:36 47.523167 -116.874157 273 32008ft 418kts
20-Aug-19 20:37 47.531401 -117.046323 273 31996ft 419kts
20-Aug-19 20:38 47.540228 -117.217726 275 31990ft 420kts
20-Aug-19 20:39 47.553978 -117.390040 274 31990ft 420kts
20-Aug-19 20:40 47.562041 -117.562743 272 31991ft 420kts
20-Aug-19 20:41 47.571663 -117.728146 284 31989ft 423kts
20-Aug-19 20:42 47.588659 -117.898461 276 31988ft 421kts
20-Aug-19 20:43 47.605893 -118.070604 276 31973ft 422kts
20-Aug-19 20:44 47.622595 -118.242873 275 31972ft 422kts
20-Aug-19 20:45 47.638167 -118.414948 275 31972ft 421kts
20-Aug-19 20:46 47.652935 -118.586853 275 31972ft 421kts
20-Aug-19 20:47 47.666767 -118.753130 274 31973ft 421kts
20-Aug-19 20:48 47.680883 -118.926167 274 31949ft 422kts
20-Aug-19 20:49 47.695009 -119.099186 274 31923ft 423kts
20-Aug-19 20:50 47.709076 -119.272710 274 31926ft 422kts
20-Aug-19 20:51 47.722857 -119.445647 273 31926ft 422kts
20-Aug-19 20:52 47.736300 -119.618845 273 31926ft 421kts
20-Aug-19 20:53 47.748869 -119.787291 272 31927ft 421kts
20-Aug-19 20:54 47.761343 -119.960071 272 31926ft 420kts
20-Aug-19 20:55 47.773659 -120.132602 272 31926ft 420kts
20-Aug-19 20:56 47.785808 -120.303661 272 31143ft 407kts
20-Aug-19 20:57 47.797981 -120.468133 272 29000ft 396kts
20-Aug-19 20:58 47.810189 -120.629736 272 26766ft 390kts
20-Aug-19 20:59 47.818912 -120.749121 270 25265ft 383kts
20-Aug-19 21:00 47.829541 -120.905297 270 23303ft 375kts
20-Aug-19 21:01 47.840080 -121.057712 271 21401ft 367kts
20-Aug-19 21:02 47.851110 -121.206767 272 19568ft 358kts
20-Aug-19 21:03 47.861899 -121.349012 271 17638ft 324kts
20-Aug-19 21:04 47.871174 -121.475465 270 15397ft 292kts
20-Aug-19 21:05 47.878656 -121.595277 269 12460ft 294kts
20-Aug-19 21:06 47.885345 -121.716290 268 11936ft 281kts
20-Aug-19 21:07 47.892126 -121.833902 269 10194ft 290kts
20-Aug-19 21:08 47.898778 -121.950603 269 8377ft 276kts
20-Aug-19 21:09 47.870452 -122.048647 235 6494ft 257kts
20-Aug-19 21:10 47.834114 -122.134925 235 5371ft 246kts
20-Aug-19 21:11 47.795739 -122.222510 235 3881ft 257kts
20-Aug-19 21:12 47.746657 -122.285901 197 2985ft 243kts
20-Aug-19 21:13 47.686385 -122.302829 193 2970ft 211kts
20-Aug-19 21:14 47.632514 -122.304879 182 2994ft 172kts
20-Aug-19 21:15 47.587882 -122.306554 180 2982ft 151kts
20-Aug-19 21:16 47.547885 -122.306987 181 2147ft 141kts
20-Aug-19 21:17 47.508082 -122.307562 182 1376ft 143kts
20-Aug-19 21:18 47.468159 -122.307698 183 641ft 138kts
20-Aug-19 21:19 47.443797 -122.307855 156 478ft 15kts
20-Aug-19 21:20 47.443019 -122.306353 181 478ft 6kts
20-Aug-19 21:21 47.441798 -122.305386 95 478ft 5kts
20-Aug-19 21:22 47.441619 -122.304478 91 478ft 0kts
20-Aug-19 21:23 47.441619 -122.304478 91 478ft 0kts
20-Aug-19 21:24 47.441619 -122.304478 91 478ft 0kts
20-Aug-19 21:25 47.441619 -122.304478 91 478ft 0kts
20-Aug-19 21:26 47.441619 -122.304478 91 478ft 0kts
20-Aug-19 21:27 47.441619 -122.304478 91 478ft 0kts
20-Aug-19 21:28 47.441619 -122.304478 91 478ft 0kts

Navigation Log

Ident Type
Flight plan parsing failed, navigation log unavailable